createdAt,value
2018-07-20T00:01:26.680Z,16.07
2018-07-20T00:03:54.906Z,17.07
2018-07-20T00:06:23.151Z,16.50
2018-07-20T00:08:51.445Z,17.77
2018-07-20T00:11:19.807Z,17.60
2018-07-20T00:13:48.079Z,18.97
2018-07-20T00:16:16.325Z,20.13
2018-07-20T00:18:44.558Z,18.23
2018-07-20T00:21:12.925Z,21.63
2018-07-20T00:23:40.938Z,22.13
2018-07-20T00:26:09.708Z,21.90
2018-07-20T00:28:38.025Z,21.40
2018-07-20T00:31:06.358Z,20.73
2018-07-20T00:33:34.654Z,22.10
2018-07-20T00:36:02.911Z,22.03
2018-07-20T00:38:31.163Z,22.13
2018-07-20T00:40:59.454Z,24.20
2018-07-20T00:43:27.711Z,22.40
2018-07-20T00:45:55.987Z,21.80
2018-07-20T00:48:24.027Z,21.67
2018-07-20T00:50:52.363Z,21.27
2018-07-20T00:53:20.639Z,21.83
2018-07-20T00:55:49.121Z,23.10
2018-07-20T00:58:17.391Z,22.03
2018-07-20T01:00:45.725Z,21.77
2018-07-20T01:03:14.039Z,23.03
2018-07-20T01:05:42.346Z,23.20
2018-07-20T01:08:10.601Z,22.80
2018-07-20T01:10:38.871Z,23.97
2018-07-20T01:13:07.297Z,22.00
2018-07-20T01:15:35.568Z,23.13
2018-07-20T01:18:03.935Z,22.57
2018-07-20T01:20:32.184Z,22.30
2018-07-20T01:23:00.460Z,22.37
2018-07-20T01:25:28.745Z,24.50
2018-07-20T01:27:57.039Z,23.83
2018-07-20T01:30:25.397Z,22.73
2018-07-20T01:32:54.043Z,21.50
2018-07-20T01:35:22.057Z,24.47
2018-07-20T01:37:50.329Z,23.70
2018-07-20T01:40:18.617Z,22.70
2018-07-20T01:42:47.081Z,24.30
2018-07-20T01:45:15.332Z,24.37
2018-07-20T01:47:43.657Z,22.20
2018-07-20T01:50:12.279Z,24.27
2018-07-20T01:52:40.533Z,22.40
2018-07-20T01:55:08.771Z,22.90
2018-07-20T01:57:36.870Z,24.03
2018-07-20T02:00:05.292Z,24.07
2018-07-20T02:02:33.613Z,22.47
2018-07-20T02:05:01.874Z,24.10
2018-07-20T02:07:30.238Z,22.00
2018-07-20T02:09:58.445Z,23.90
2018-07-20T02:12:26.726Z,24.00
2018-07-20T02:14:54.997Z,22.87
2018-07-20T02:17:23.577Z,22.83
2018-07-20T02:19:51.927Z,23.13
2018-07-20T02:22:20.240Z,23.03
2018-07-20T02:24:48.497Z,24.53
2018-07-20T02:27:16.754Z,23.87
2018-07-20T02:29:44.909Z,23.90
2018-07-20T02:32:13.242Z,23.70
2018-07-20T02:34:41.574Z,22.97
2018-07-20T02:37:09.866Z,22.33
2018-07-20T02:39:38.221Z,22.77
2018-07-20T02:42:06.611Z,24.37
2018-07-20T02:44:34.922Z,20.97
2018-07-20T02:47:03.302Z,23.13
2018-07-20T02:49:31.622Z,23.57
2018-07-20T02:52:00.021Z,22.83
2018-07-20T02:54:28.429Z,24.77
2018-07-20T02:56:56.709Z,24.03
2018-07-20T02:59:24.984Z,25.63
2018-07-20T03:01:53.337Z,25.17
2018-07-20T03:04:21.663Z,24.30
2018-07-20T03:06:49.948Z,24.50
2018-07-20T03:09:17.984Z,24.17
2018-07-20T03:11:46.372Z,24.53
2018-07-20T03:14:14.757Z,25.90
2018-07-20T03:16:43.089Z,24.90
2018-07-20T03:19:11.400Z,25.37
2018-07-20T03:21:39.659Z,25.57
2018-07-20T03:24:07.749Z,26.17
2018-07-20T03:26:36.014Z,23.80
2018-07-20T03:29:04.496Z,24.43
2018-07-20T03:31:32.785Z,26.30
2018-07-20T03:34:01.126Z,25.77
2018-07-20T03:36:29.517Z,26.47
2018-07-20T03:38:57.781Z,24.27
2018-07-20T03:41:25.794Z,25.90
2018-07-20T03:43:54.041Z,25.50
2018-07-20T03:46:22.301Z,24.33
2018-07-20T03:48:50.565Z,23.83
2018-07-20T03:51:18.871Z,23.73
2018-07-20T03:53:47.481Z,23.93
2018-07-20T03:56:15.852Z,24.97
2018-07-20T03:58:44.194Z,23.50
2018-07-20T04:01:12.490Z,24.77
2018-07-20T04:03:40.766Z,25.27
2018-07-20T04:06:09.041Z,25.33
2018-07-20T04:08:37.134Z,22.93
2018-07-20T04:11:05.389Z,22.70
2018-07-20T04:13:33.381Z,24.10
2018-07-20T04:16:01.629Z,22.80
2018-07-20T04:18:29.994Z,22.87
2018-07-20T04:20:58.289Z,22.47
2018-07-20T04:23:26.545Z,21.97
2018-07-20T04:25:54.824Z,22.17
2018-07-20T04:28:23.212Z,21.97
2018-07-20T04:30:51.530Z,22.40
2018-07-20T04:33:19.592Z,21.90
2018-07-20T04:35:47.609Z,20.97
2018-07-20T04:38:15.844Z,22.27
2018-07-20T04:40:44.188Z,19.43
2018-07-20T04:43:12.422Z,20.40
2018-07-20T04:45:40.830Z,19.60
2018-07-20T04:48:09.168Z,19.73
2018-07-20T04:50:38.049Z,20.43
2018-07-20T04:53:06.481Z,18.50
2018-07-20T04:55:34.725Z,19.57
2018-07-20T04:58:02.803Z,18.03
2018-07-20T05:00:31.139Z,18.03
2018-07-20T05:02:59.534Z,18.63
2018-07-20T05:05:27.817Z,17.80
2018-07-20T05:07:56.231Z,18.83
2018-07-20T05:10:25.593Z,16.80
2018-07-20T05:12:54.049Z,17.07
2018-07-20T05:15:22.340Z,16.83
2018-07-20T05:17:50.665Z,16.23
2018-07-20T05:20:19.018Z,14.47
2018-07-20T05:22:47.285Z,16.10
2018-07-20T05:25:15.639Z,13.80
2018-07-20T05:27:43.871Z,14.43
2018-07-20T05:30:12.109Z,13.47
2018-07-20T05:32:40.557Z,13.73
2018-07-20T05:35:08.815Z,13.63
2018-07-20T05:37:37.073Z,13.60
2018-07-20T05:40:05.438Z,13.90
2018-07-20T05:42:33.717Z,13.13
2018-07-20T05:45:01.985Z,13.73
2018-07-20T05:47:30.241Z,15.20
2018-07-20T05:49:58.485Z,14.13
2018-07-20T05:52:26.854Z,13.90
2018-07-20T05:54:55.158Z,13.73
2018-07-20T05:57:23.477Z,15.93
2018-07-20T05:59:51.750Z,16.07
2018-07-20T06:02:20.189Z,13.70
2018-07-20T06:04:49.413Z,14.90
2018-07-20T06:07:17.397Z,13.80
2018-07-20T06:09:45.877Z,14.83
2018-07-20T06:12:14.253Z,14.37
2018-07-20T06:14:42.534Z,14.70
2018-07-20T06:17:10.877Z,14.43
2018-07-20T06:19:39.169Z,14.50
2018-07-20T06:22:07.513Z,14.93
2018-07-20T06:24:35.600Z,15.63
2018-07-20T06:27:03.929Z,15.10
2018-07-20T06:29:32.304Z,13.30
2018-07-20T06:32:00.638Z,13.73
2018-07-20T06:34:28.669Z,14.47
2018-07-20T06:36:56.909Z,14.67
2018-07-20T06:39:25.289Z,13.40
2018-07-20T06:41:53.569Z,14.87
2018-07-20T06:44:21.844Z,13.93
2018-07-20T06:46:50.125Z,13.13
2018-07-20T06:49:18.488Z,12.83
2018-07-20T06:51:46.779Z,13.53
2018-07-20T06:54:15.046Z,11.50
2018-07-20T06:56:43.338Z,12.07
2018-07-20T06:59:11.585Z,11.10
2018-07-20T07:01:39.669Z,10.00
2018-07-20T07:04:07.971Z,10.93
2018-07-20T07:06:36.199Z,11.23
2018-07-20T07:09:07.058Z,10.27
2018-07-20T07:11:35.425Z,9.23
2018-07-20T07:14:03.682Z,10.83
2018-07-20T07:16:31.997Z,8.80
2018-07-20T07:19:00.286Z,10.00
2018-07-20T07:21:28.546Z,9.20
2018-07-20T07:23:56.838Z,8.57
2018-07-20T07:26:25.071Z,9.13
2018-07-20T07:28:53.335Z,9.90
2018-07-20T07:31:21.645Z,8.83
2018-07-20T07:33:49.949Z,9.10
2018-07-20T07:36:18.221Z,10.40
2018-07-20T07:38:46.558Z,8.13
2018-07-20T07:41:15.213Z,8.80
2018-07-20T07:43:43.550Z,17.13
2018-07-20T07:46:11.921Z,7.87
2018-07-20T07:48:40.210Z,9.73
2018-07-20T07:51:08.593Z,8.30
2018-07-20T07:53:36.932Z,8.03
2018-07-20T07:56:05.241Z,7.70
2018-07-20T07:58:33.521Z,9.87
2018-07-20T08:01:01.962Z,7.03
2018-07-20T08:03:30.357Z,7.20
2018-07-20T08:05:58.639Z,6.97
2018-07-20T08:08:26.944Z,7.13
2018-07-20T08:10:55.195Z,7.70
2018-07-20T08:13:23.582Z,6.70
2018-07-20T08:15:51.928Z,7.80
2018-07-20T08:18:20.224Z,10.87
2018-07-20T08:20:48.662Z,6.67
2018-07-20T08:23:16.945Z,8.50
2018-07-20T08:25:45.259Z,8.63
2018-07-20T08:28:13.484Z,6.60
2018-07-20T08:30:41.728Z,7.10
2018-07-20T08:33:10.093Z,9.40
2018-07-20T08:35:38.414Z,7.17
2018-07-20T08:38:06.651Z,7.20
2018-07-20T08:40:35.006Z,8.53
2018-07-20T08:43:03.270Z,4.97
2018-07-20T08:45:31.590Z,6.97
2018-07-20T08:47:59.961Z,5.33
2018-07-20T08:50:28.272Z,6.47
2018-07-20T08:52:56.270Z,4.73
2018-07-20T08:55:24.553Z,5.03
2018-07-20T08:57:52.881Z,5.60
2018-07-20T09:00:21.166Z,6.43
2018-07-20T09:02:49.450Z,4.30
2018-07-20T09:05:17.717Z,5.37
2018-07-20T09:07:45.945Z,4.80
2018-07-20T09:10:14.361Z,5.50
2018-07-20T09:12:42.643Z,6.00
2018-07-20T09:15:10.956Z,4.53
2018-07-20T09:17:39.423Z,5.80
2018-07-20T09:20:07.715Z,5.70
2018-07-20T09:22:36.119Z,4.93
2018-07-20T09:25:04.737Z,4.30
2018-07-20T09:27:32.757Z,5.37
2018-07-20T09:30:01.143Z,4.93
2018-07-20T09:32:29.377Z,7.03
2018-07-20T09:34:57.603Z,4.77
2018-07-20T09:37:25.964Z,10.70
2018-07-20T09:39:54.277Z,4.63
2018-07-20T09:42:22.871Z,5.97
2018-07-20T09:44:51.190Z,4.00
2018-07-20T09:47:19.593Z,4.80
2018-07-20T09:49:48.168Z,7.47
2018-07-20T09:52:16.455Z,4.03
2018-07-20T09:54:44.726Z,4.90
2018-07-20T09:57:13.058Z,7.47
2018-07-20T09:59:41.390Z,4.90
2018-07-20T10:02:09.749Z,6.17
2018-07-20T10:04:38.046Z,3.90
2018-07-20T10:07:06.306Z,4.90
2018-07-20T10:09:34.624Z,4.53
2018-07-20T10:12:02.952Z,4.23
2018-07-20T10:14:31.182Z,4.17
2018-07-20T10:16:59.553Z,5.20
2018-07-20T10:19:27.842Z,5.83
2018-07-20T10:21:56.159Z,6.57
2018-07-20T10:24:24.451Z,8.87
2018-07-20T10:26:52.778Z,4.10
2018-07-20T10:29:21.050Z,4.93
2018-07-20T10:31:49.366Z,6.63
2018-07-20T10:34:17.634Z,4.80
2018-07-20T10:36:45.930Z,3.93
2018-07-20T10:39:14.141Z,4.20
2018-07-20T10:41:42.510Z,4.90
2018-07-20T10:44:10.746Z,4.53
2018-07-20T10:46:39.053Z,8.20
2018-07-20T10:49:07.334Z,5.97
2018-07-20T10:51:36.023Z,4.77
2018-07-20T10:54:04.285Z,5.57
2018-07-20T10:56:32.624Z,4.20
2018-07-20T10:59:00.886Z,4.50
2018-07-20T11:01:29.302Z,4.83
2018-07-20T11:03:57.719Z,4.93
2018-07-20T11:06:26.039Z,5.10
2018-07-20T11:08:54.365Z,4.90
2018-07-20T11:11:22.607Z,5.80
2018-07-20T11:13:50.854Z,6.33
2018-07-20T11:16:19.215Z,7.27
2018-07-20T11:18:47.522Z,7.00
2018-07-20T11:21:15.806Z,4.30
2018-07-20T11:23:44.120Z,6.83
2018-07-20T11:26:12.738Z,5.77
2018-07-20T11:28:41.097Z,5.53
2018-07-20T11:31:09.365Z,6.63
2018-07-20T11:33:37.718Z,6.07
2018-07-20T11:36:06.022Z,5.40
2018-07-20T11:38:34.330Z,6.40
2018-07-20T11:41:02.681Z,5.23
2018-07-20T11:43:31.043Z,6.00
2018-07-20T11:45:59.430Z,5.80
2018-07-20T11:48:27.765Z,5.70
2018-07-20T11:50:56.769Z,4.93
2018-07-20T11:53:25.117Z,4.70
2018-07-20T11:55:53.410Z,5.57
2018-07-20T11:58:21.664Z,5.13
2018-07-20T12:00:50.038Z,5.57
2018-07-20T12:03:18.444Z,5.50
2018-07-20T12:05:47.004Z,5.53
2018-07-20T12:08:15.294Z,6.33
2018-07-20T12:10:43.681Z,6.37
2018-07-20T12:13:11.994Z,5.37
2018-07-20T12:15:40.281Z,4.90
2018-07-20T12:18:08.860Z,5.87
2018-07-20T12:20:36.962Z,6.30
2018-07-20T12:23:05.259Z,8.40
2018-07-20T12:25:33.669Z,5.60
2018-07-20T12:28:02.135Z,5.80
2018-07-20T12:30:30.398Z,5.60
2018-07-20T12:32:58.663Z,6.27
2018-07-20T12:35:26.926Z,6.57
2018-07-20T12:37:55.186Z,6.50
2018-07-20T12:40:23.582Z,10.33
2018-07-20T12:42:51.942Z,6.93
2018-07-20T12:45:20.258Z,6.73
2018-07-20T12:47:48.518Z,6.80
2018-07-20T12:50:16.969Z,5.33
2018-07-20T12:52:45.270Z,4.83
2018-07-20T12:55:13.564Z,4.93
2018-07-20T12:57:41.934Z,6.93
2018-07-20T13:00:10.227Z,4.80
2018-07-20T13:02:38.515Z,5.63
2018-07-20T13:05:06.826Z,5.20
2018-07-20T13:07:35.341Z,6.30
2018-07-20T13:10:03.726Z,5.53
2018-07-20T13:12:32.049Z,5.57
2018-07-20T13:15:00.286Z,4.93
2018-07-20T13:17:28.661Z,6.33
2018-07-20T13:19:56.995Z,3.70
2018-07-20T13:22:25.411Z,4.03
2018-07-20T13:24:53.798Z,7.10
2018-07-20T13:27:22.117Z,4.43
2018-07-20T13:29:50.354Z,3.10
2018-07-20T13:32:18.721Z,3.10
2018-07-20T13:34:47.204Z,3.70
2018-07-20T13:37:15.942Z,5.07
2018-07-20T13:39:44.498Z,5.27
2018-07-20T13:42:12.853Z,11.10
2018-07-20T13:44:41.117Z,4.47
2018-07-20T13:47:09.482Z,4.67
2018-07-20T13:49:37.915Z,4.90
2018-07-20T13:52:06.245Z,6.10
2018-07-20T13:54:34.538Z,5.67
2018-07-20T13:57:02.887Z,6.13
2018-07-20T13:59:31.260Z,6.50
2018-07-20T14:01:59.542Z,4.47
2018-07-20T14:04:27.849Z,3.23
2018-07-20T14:06:56.121Z,3.90
2018-07-20T14:09:24.394Z,4.93
2018-07-20T14:11:52.674Z,3.70
2018-07-20T14:14:20.950Z,4.73
2018-07-20T14:16:49.291Z,4.43
2018-07-20T14:19:17.318Z,8.97
2018-07-20T14:21:45.717Z,5.03
2018-07-20T14:24:14.506Z,4.17
2018-07-20T14:26:42.814Z,4.70
2018-07-20T14:29:11.123Z,4.53
2018-07-20T14:31:39.548Z,3.57
2018-07-20T14:34:07.733Z,28.07
2018-07-20T14:36:36.163Z,3.87
2018-07-20T14:39:08.658Z,4.10
2018-07-20T14:41:36.938Z,2.77
2018-07-20T14:44:05.311Z,4.93
2018-07-20T14:46:33.749Z,3.90
2018-07-20T14:49:02.036Z,2.53
2018-07-20T14:51:31.226Z,3.40
2018-07-20T14:53:59.623Z,4.57
2018-07-20T14:56:28.161Z,5.80
2018-07-20T14:58:56.481Z,4.97
2018-07-20T15:01:24.749Z,3.10
2018-07-20T15:03:53.062Z,2.77
2018-07-20T15:06:21.381Z,4.90
2018-07-20T15:08:49.739Z,4.20
2018-07-20T15:11:18.124Z,7.00
2018-07-20T15:13:46.560Z,2.83
2018-07-20T15:16:14.968Z,3.10
2018-07-20T15:18:43.223Z,6.00
2018-07-20T15:21:11.462Z,5.00
2018-07-20T15:23:39.900Z,3.10
2018-07-20T15:26:08.163Z,3.73
2018-07-20T15:28:36.394Z,2.90
2018-07-20T15:31:04.782Z,4.13
2018-07-20T15:33:33.029Z,3.10
2018-07-20T15:36:01.262Z,2.47
2018-07-20T15:38:29.622Z,3.93
2018-07-20T15:40:57.893Z,2.80
2018-07-20T15:43:26.353Z,3.10
2018-07-20T15:46:05.769Z,3.60
2018-07-20T15:48:23.117Z,3.10
2018-07-20T15:50:51.381Z,3.10
2018-07-20T15:53:46.535Z,4.53
2018-07-20T15:55:47.925Z,3.70
2018-07-20T15:58:16.156Z,6.27
2018-07-20T16:00:44.538Z,4.90
2018-07-20T16:03:12.818Z,4.47
2018-07-20T16:05:41.164Z,6.70
2018-07-20T16:08:09.563Z,4.43
2018-07-20T16:10:37.902Z,4.00
2018-07-20T16:13:06.182Z,4.70
2018-07-20T16:15:34.520Z,5.03
2018-07-20T16:18:02.592Z,4.90
2018-07-20T16:20:30.900Z,4.00
2018-07-20T16:22:59.293Z,4.23
2018-07-20T16:25:27.557Z,5.20
2018-07-20T16:27:55.522Z,3.80
2018-07-20T16:30:23.838Z,4.93
2018-07-20T16:32:52.167Z,3.67
2018-07-20T16:35:20.242Z,4.20
2018-07-20T16:37:48.572Z,3.60
2018-07-20T16:40:16.802Z,4.90
2018-07-20T16:42:45.049Z,5.17
2018-07-20T16:45:13.424Z,3.63
2018-07-20T16:47:41.474Z,3.57
2018-07-20T16:50:09.707Z,4.87
2018-07-20T16:52:37.937Z,8.10
2018-07-20T16:55:06.271Z,3.90
2018-07-20T16:57:34.520Z,3.40
2018-07-20T17:00:02.827Z,3.67
2018-07-20T17:02:31.330Z,3.73
2018-07-20T17:04:59.569Z,8.63
2018-07-20T17:07:27.600Z,4.60
2018-07-20T17:09:55.982Z,3.23
2018-07-20T17:12:24.175Z,6.70
2018-07-20T17:14:52.729Z,5.60
2018-07-20T17:17:21.035Z,3.20
2018-07-20T17:19:49.106Z,3.77
2018-07-20T17:22:17.475Z,2.90
2018-07-20T17:24:45.737Z,4.33
2018-07-20T17:27:14.062Z,2.20
2018-07-20T17:29:42.466Z,2.87
2018-07-20T17:32:10.721Z,3.80
2018-07-20T17:34:39.025Z,2.53
2018-07-20T17:37:07.337Z,2.50
2018-07-20T17:39:35.621Z,3.00
2018-07-20T17:42:04.006Z,3.77
2018-07-20T17:44:32.316Z,5.20
2018-07-20T17:47:00.549Z,3.13
2018-07-20T17:49:29.515Z,6.83
2018-07-20T17:51:57.709Z,5.13
2018-07-20T17:54:26.162Z,2.40
2018-07-20T17:56:54.578Z,3.83
2018-07-20T17:59:22.829Z,4.20
2018-07-20T18:01:51.285Z,2.97
2018-07-20T18:04:19.589Z,3.00
2018-07-20T18:06:48.215Z,2.90
2018-07-20T18:09:16.563Z,5.97
2018-07-20T18:11:44.838Z,3.53
2018-07-20T18:14:13.193Z,2.50
2018-07-20T18:16:41.561Z,4.63
2018-07-20T18:19:09.949Z,3.57
2018-07-20T18:21:38.303Z,4.83
2018-07-20T18:24:06.436Z,3.13
2018-07-20T18:26:34.805Z,3.83
2018-07-20T18:29:03.185Z,3.73
2018-07-20T18:31:31.494Z,4.10
2018-07-20T18:33:59.861Z,3.70
2018-07-20T18:36:28.148Z,4.03
2018-07-20T18:38:56.381Z,5.40
2018-07-20T18:41:24.753Z,3.83
2018-07-20T18:43:53.134Z,2.70
2018-07-20T18:46:21.485Z,3.90
2018-07-20T18:48:49.794Z,2.70
2018-07-20T18:51:17.827Z,5.20
2018-07-20T18:53:46.188Z,3.50
2018-07-20T18:56:14.543Z,2.93
2018-07-20T18:58:42.812Z,3.33
2018-07-20T19:01:10.880Z,4.67
2018-07-20T19:03:39.246Z,2.60
2018-07-20T19:06:07.605Z,3.00
2018-07-20T19:08:35.917Z,3.10
2018-07-20T19:11:04.298Z,4.43
2018-07-20T19:13:32.658Z,3.30
2018-07-20T19:16:00.970Z,3.00
2018-07-20T19:18:29.076Z,3.43
2018-07-20T19:20:57.450Z,2.70
2018-07-20T19:23:25.476Z,3.20
2018-07-20T19:25:53.750Z,3.50
2018-07-20T19:28:22.095Z,3.60
2018-07-20T19:30:50.381Z,4.90
2018-07-20T19:33:18.689Z,3.53
2018-07-20T19:35:46.947Z,2.60
2018-07-20T19:38:15.188Z,3.10
2018-07-20T19:40:43.453Z,5.63
2018-07-20T19:43:11.685Z,3.23
2018-07-20T19:45:39.761Z,3.60
2018-07-20T19:48:08.079Z,2.83
2018-07-20T19:50:36.610Z,2.77
2018-07-20T19:53:05.049Z,3.00
2018-07-20T19:55:33.446Z,4.90
2018-07-20T19:58:01.731Z,4.53
2018-07-20T20:00:30.081Z,3.30
2018-07-20T20:02:58.469Z,3.13
2018-07-20T20:05:26.771Z,2.87
2018-07-20T20:07:54.821Z,3.50
2018-07-20T20:10:23.145Z,3.50
2018-07-20T20:12:51.462Z,6.20
2018-07-20T20:15:19.793Z,3.97
2018-07-20T20:17:48.233Z,3.83
2018-07-20T20:20:16.241Z,2.57
2018-07-20T20:22:45.028Z,4.10
2018-07-20T20:25:13.140Z,6.40
2018-07-20T20:27:41.694Z,5.93
2018-07-20T20:30:10.028Z,5.17
2018-07-20T20:32:38.010Z,3.83
2018-07-20T20:35:06.316Z,7.37
2018-07-20T20:37:34.566Z,5.20
2018-07-20T20:40:03.074Z,4.83
2018-07-20T20:42:31.397Z,3.73
2018-07-20T20:44:59.408Z,4.47
2018-07-20T20:47:27.474Z,4.47
2018-07-20T20:49:55.759Z,6.43
2018-07-20T20:52:24.020Z,4.43
2018-07-20T20:54:52.302Z,4.23
2018-07-20T20:57:20.529Z,6.37
2018-07-20T20:59:48.804Z,5.37
2018-07-20T21:02:17.114Z,6.33
2018-07-20T21:04:45.446Z,6.33
2018-07-20T21:07:13.439Z,5.17
2018-07-20T21:09:41.729Z,6.43
2018-07-20T21:12:10.225Z,7.20
2018-07-20T21:14:38.497Z,6.67
2018-07-20T21:17:07.077Z,6.43
2018-07-20T21:19:35.349Z,7.20
2018-07-20T21:22:03.654Z,8.83
2018-07-20T21:24:31.930Z,6.90
2018-07-20T21:26:59.934Z,14.63
2018-07-20T21:29:28.273Z,10.10
2018-07-20T21:31:56.545Z,9.13
2018-07-20T21:34:25.674Z,8.80
2018-07-20T21:36:53.987Z,10.90
2018-07-20T21:39:22.350Z,7.60
2018-07-20T21:41:50.646Z,6.93
2018-07-20T21:44:18.957Z,7.77
2018-07-20T21:46:46.994Z,7.47
2018-07-20T21:49:15.241Z,7.33
2018-07-20T21:51:43.498Z,13.20
2018-07-20T21:54:11.833Z,8.43
2018-07-20T21:56:40.163Z,9.30
2018-07-20T21:59:08.149Z,14.47
2018-07-20T22:01:36.151Z,10.83
2018-07-20T22:04:04.428Z,14.50
2018-07-20T22:06:32.742Z,10.57
2018-07-20T22:09:00.981Z,9.40
2018-07-20T22:11:29.243Z,8.57
2018-07-20T22:13:57.245Z,7.43
2018-07-20T22:16:25.201Z,8.10
2018-07-20T22:18:53.576Z,7.27
2018-07-20T22:21:21.861Z,8.13
2018-07-20T22:23:50.505Z,9.27
2018-07-20T22:26:18.790Z,7.40
2018-07-20T22:28:47.138Z,7.80
2018-07-20T22:31:15.507Z,7.90
2018-07-20T22:33:43.781Z,8.83
2018-07-20T22:36:11.781Z,7.90
2018-07-20T22:38:40.505Z,7.83
2018-07-20T22:41:08.915Z,7.90
2018-07-20T22:43:37.213Z,8.07
2018-07-20T22:46:06.262Z,7.60
2018-07-20T22:48:34.611Z,8.17
2018-07-20T22:51:02.942Z,7.40
2018-07-20T22:53:31.302Z,7.80
2018-07-20T22:55:59.310Z,8.03
2018-07-20T22:58:27.400Z,9.77
2018-07-20T23:00:55.635Z,9.63
2018-07-20T23:03:23.933Z,8.80
2018-07-20T23:05:52.147Z,7.70
2018-07-20T23:08:20.438Z,10.13
2018-07-20T23:10:48.727Z,7.17
2018-07-20T23:13:16.941Z,11.10
2018-07-20T23:15:45.239Z,8.27
2018-07-20T23:18:13.620Z,8.60
2018-07-20T23:20:42.207Z,9.30
2018-07-20T23:23:10.458Z,9.83
2018-07-20T23:25:38.621Z,6.90
2018-07-20T23:28:06.933Z,7.70
2018-07-20T23:30:34.933Z,7.57
2018-07-20T23:33:02.934Z,6.30
2018-07-20T23:35:31.158Z,6.67
2018-07-20T23:37:59.577Z,6.97
2018-07-20T23:40:27.881Z,8.10
2018-07-20T23:42:56.107Z,7.47
2018-07-20T23:45:24.439Z,7.10
2018-07-20T23:47:52.677Z,7.47
2018-07-20T23:50:20.945Z,8.80
2018-07-20T23:52:49.291Z,7.50
2018-07-20T23:55:17.869Z,7.40
2018-07-20T23:57:46.102Z,10.13
